createdAt,value
2022-09-04T00:00:10.322Z,6.45
2022-09-04T00:03:05.732Z,6.25
2022-09-04T00:05:43.159Z,7.25
2022-09-04T00:11:14.180Z,6.80
2022-09-04T00:13:49.934Z,6.80
2022-09-04T00:16:24.156Z,7.07
2022-09-04T00:19:02.739Z,8.48
2022-09-04T00:21:38.468Z,7.03
2022-09-04T00:24:12.715Z,8.00
2022-09-04T00:26:54.550Z,7.63
2022-09-04T00:29:37.353Z,7.72
2022-09-04T00:32:18.925Z,8.25
2022-09-04T00:35:07.122Z,8.73
2022-09-04T00:37:43.053Z,8.35
2022-09-04T00:40:26.514Z,9.00
2022-09-04T00:43:53.520Z,8.63
2022-09-04T00:47:10.701Z,8.43
2022-09-04T00:50:07.728Z,8.57
2022-09-04T00:52:59.532Z,8.20
2022-09-04T00:55:59.890Z,7.10
2022-09-04T00:58:45.984Z,6.78
2022-09-04T01:01:23.499Z,6.40
2022-09-04T01:04:25.750Z,6.10
2022-09-04T01:07:24.062Z,6.32
2022-09-04T01:10:19.761Z,6.28
2022-09-04T01:12:58.431Z,6.63
2022-09-04T01:15:45.590Z,7.72
2022-09-04T01:18:23.440Z,7.27
2022-09-04T01:21:31.050Z,7.40
2022-09-04T01:24:35.813Z,7.65
2022-09-04T01:27:11.385Z,7.97
2022-09-04T01:29:54.196Z,7.30
2022-09-04T01:32:36.921Z,9.52
2022-09-04T01:35:21.912Z,8.80
2022-09-04T01:38:02.788Z,9.10
2022-09-04T01:40:42.242Z,8.38
2022-09-04T01:43:14.596Z,7.10
2022-09-04T01:46:05.405Z,7.22
2022-09-04T01:48:47.489Z,7.00
2022-09-04T01:51:28.040Z,7.68
2022-09-04T01:54:13.879Z,8.13
2022-09-04T01:56:53.097Z,7.40
2022-09-04T01:59:29.561Z,6.40
2022-09-04T02:02:05.800Z,7.07
2022-09-04T02:04:44.620Z,7.63
2022-09-04T02:07:23.867Z,6.82
2022-09-04T02:10:08.598Z,8.57
2022-09-04T02:12:51.243Z,8.95
2022-09-04T02:15:35.284Z,9.18
2022-09-04T02:18:15.036Z,8.30
2022-09-04T02:20:54.068Z,8.68
2022-09-04T02:23:36.091Z,9.18
2022-09-04T02:26:14.569Z,10.35
2022-09-04T02:28:58.625Z,11.30
2022-09-04T02:31:39.076Z,11.23
2022-09-04T02:34:15.100Z,9.20
2022-09-04T02:36:53.118Z,9.75
2022-09-04T02:39:38.610Z,8.52
2022-09-04T02:42:21.239Z,7.90
2022-09-04T02:45:02.275Z,8.43
2022-09-04T02:47:46.853Z,8.63
2022-09-04T02:50:39.254Z,9.07
2022-09-04T02:53:30.983Z,7.32
2022-09-04T02:56:17.101Z,7.88
2022-09-04T02:59:04.663Z,7.13
2022-09-04T03:01:41.052Z,8.32
2022-09-04T03:04:19.755Z,8.85
2022-09-04T03:06:55.049Z,8.95
2022-09-04T03:09:30.837Z,10.15
2022-09-04T03:12:07.100Z,9.68
2022-09-04T03:14:45.464Z,9.75
2022-09-04T03:17:27.022Z,10.18
2022-09-04T03:20:06.511Z,10.38
2022-09-04T03:22:44.606Z,11.77
2022-09-04T03:25:49.624Z,12.18
2022-09-04T03:28:31.208Z,10.75
2022-09-04T03:31:25.551Z,10.95
2022-09-04T03:34:21.336Z,10.98
2022-09-04T03:37:13.745Z,11.05
2022-09-04T03:39:57.174Z,10.82
2022-09-04T03:42:37.237Z,10.43
2022-09-04T03:45:22.630Z,10.43
2022-09-04T03:48:12.768Z,9.98
2022-09-04T03:50:55.340Z,10.30
2022-09-04T03:53:38.722Z,10.27
2022-09-04T03:56:31.489Z,11.13
2022-09-04T03:59:06.182Z,11.95
2022-09-04T04:01:48.492Z,12.43
2022-09-04T04:04:53.356Z,10.95
2022-09-04T04:07:38.381Z,11.05
2022-09-04T04:10:33.605Z,12.13
2022-09-04T04:16:17.856Z,13.32
2022-09-04T04:19:24.150Z,11.48
2022-09-04T04:22:11.888Z,11.32
2022-09-04T04:25:06.643Z,12.52
2022-09-04T04:27:54.468Z,11.15
2022-09-04T04:30:23.698Z,11.45
2022-09-04T04:33:25.948Z,12.27
2022-09-04T04:36:13.204Z,13.32
2022-09-04T04:39:15.564Z,15.20
2022-09-04T04:42:07.067Z,15.77
2022-09-04T04:45:25.819Z,14.57
2022-09-04T04:49:06.305Z,14.27
2022-09-04T04:52:00.100Z,13.13
2022-09-04T04:54:59.964Z,11.63
2022-09-04T04:57:37.679Z,11.32
2022-09-04T05:00:16.213Z,10.65
2022-09-04T05:03:01.987Z,10.00
2022-09-04T05:05:55.312Z,10.68
2022-09-04T05:08:36.349Z,11.02
2022-09-04T05:11:15.329Z,10.07
2022-09-04T05:13:58.525Z,9.63
2022-09-04T05:16:43.020Z,9.80
2022-09-04T05:19:22.876Z,9.98
2022-09-04T05:22:01.097Z,10.30
2022-09-04T05:24:37.818Z,11.43
2022-09-04T05:27:16.758Z,12.88
2022-09-04T05:29:53.887Z,13.63
2022-09-04T05:32:34.552Z,14.40
2022-09-04T05:35:14.369Z,12.00
2022-09-04T05:37:54.741Z,12.43
2022-09-04T05:40:32.190Z,11.10
2022-09-04T05:43:13.416Z,11.60
2022-09-04T05:45:59.528Z,11.48
2022-09-04T05:48:43.705Z,10.15
2022-09-04T05:51:54.487Z,9.52
2022-09-04T05:55:00.904Z,9.50
2022-09-04T05:57:47.704Z,8.60
2022-09-04T06:00:19.141Z,8.98
2022-09-04T06:03:17.642Z,9.68
2022-09-04T06:06:08.712Z,11.27
2022-09-04T06:09:02.243Z,11.68
2022-09-04T06:11:45.946Z,12.40
2022-09-04T06:14:35.260Z,11.82
2022-09-04T06:17:27.512Z,9.70
2022-09-04T06:20:14.539Z,9.13
2022-09-04T06:23:07.313Z,9.90
2022-09-04T06:26:08.648Z,9.38
2022-09-04T06:29:17.857Z,8.65
2022-09-04T06:32:26.202Z,8.50
2022-09-04T06:35:23.889Z,7.90
2022-09-04T06:38:08.906Z,8.15
2022-09-04T06:40:58.965Z,7.63
2022-09-04T06:43:38.099Z,7.28
2022-09-04T06:46:22.334Z,6.20
2022-09-04T06:49:03.049Z,6.03
2022-09-04T06:51:58.797Z,5.40
2022-09-04T06:54:47.265Z,5.65
2022-09-04T06:57:48.253Z,4.95
2022-09-04T07:00:20.040Z,4.35
2022-09-04T07:03:18.418Z,3.80
2022-09-04T07:05:59.802Z,4.35
2022-09-04T07:08:47.718Z,4.05
2022-09-04T07:11:29.754Z,4.10
2022-09-04T07:14:20.302Z,4.07
2022-09-04T07:17:07.384Z,3.58
2022-09-04T07:20:12.924Z,4.07
2022-09-04T07:23:27.076Z,3.78
2022-09-04T07:26:12.311Z,3.40
2022-09-04T07:29:08.916Z,3.70
2022-09-04T07:31:45.315Z,4.30
2022-09-04T07:34:26.182Z,3.90
2022-09-04T07:37:04.631Z,3.72
2022-09-04T07:39:45.569Z,3.97
2022-09-04T07:42:22.664Z,4.15
2022-09-04T07:45:03.289Z,4.00
2022-09-04T07:47:38.192Z,3.90
2022-09-04T07:50:11.700Z,4.10
2022-09-04T07:53:08.332Z,4.10
2022-09-04T07:55:42.025Z,3.58
2022-09-04T07:58:53.074Z,3.53
2022-09-04T08:01:52.417Z,3.58
2022-09-04T08:04:49.418Z,3.90
2022-09-04T08:07:28.928Z,3.65
2022-09-04T08:10:21.426Z,3.70
2022-09-04T08:13:25.389Z,3.53
2022-09-04T08:16:07.238Z,3.58
2022-09-04T08:19:01.613Z,3.70
2022-09-04T08:21:35.335Z,3.47
2022-09-04T08:24:57.037Z,3.50
2022-09-04T08:28:02.992Z,3.35
2022-09-04T08:30:47.713Z,3.60
2022-09-04T08:34:17.486Z,3.30
2022-09-04T08:36:59.613Z,3.38
2022-09-04T08:39:37.670Z,3.05
2022-09-04T08:42:54.174Z,3.50
2022-09-04T08:45:55.448Z,3.15
2022-09-04T08:49:10.544Z,3.65
2022-09-04T08:52:36.226Z,3.67
2022-09-04T08:55:51.753Z,3.50
2022-09-04T08:59:08.008Z,2.83
2022-09-04T09:02:28.519Z,3.47
2022-09-04T09:05:41.335Z,3.53
2022-09-04T09:09:19.765Z,3.30
2022-09-04T09:12:45.907Z,3.40
2022-09-04T09:15:52.988Z,3.22
2022-09-04T09:18:40.841Z,2.83
2022-09-04T09:21:13.743Z,3.08
2022-09-04T09:24:47.736Z,3.40
2022-09-04T09:28:01.832Z,3.22
2022-09-04T09:30:45.196Z,3.10
2022-09-04T09:34:15.419Z,3.38
2022-09-04T09:40:31.845Z,3.38
2022-09-04T09:44:10.030Z,2.83
2022-09-04T09:47:25.669Z,3.10
2022-09-04T09:50:22.669Z,3.42
2022-09-04T09:53:46.997Z,3.20
2022-09-04T09:57:06.064Z,3.50
2022-09-04T10:00:05.984Z,3.20
2022-09-04T10:03:45.320Z,2.95
2022-09-04T10:06:44.785Z,2.67
2022-09-04T10:10:04.865Z,3.10
2022-09-04T10:13:26.817Z,3.08
2022-09-04T10:16:53.138Z,2.90
2022-09-04T10:20:06.173Z,2.78
2022-09-04T10:23:08.895Z,2.83
2022-09-04T10:26:50.709Z,3.40
2022-09-04T10:29:46.599Z,3.13
2022-09-04T10:33:07.957Z,3.08
2022-09-04T10:36:04.984Z,2.80
2022-09-04T10:39:02.565Z,2.60
2022-09-04T10:42:02.013Z,3.00
2022-09-04T10:44:56.548Z,2.55
2022-09-04T10:48:29.618Z,2.50
2022-09-04T10:51:21.016Z,2.72
2022-09-04T10:54:45.028Z,2.58
2022-09-04T10:57:39.276Z,2.60
2022-09-04T11:00:14.356Z,2.97
2022-09-04T11:03:28.205Z,2.65
2022-09-04T11:06:31.543Z,2.60
2022-09-04T11:09:34.078Z,2.78
2022-09-04T11:12:53.711Z,2.53
2022-09-04T11:16:09.998Z,2.70
2022-09-04T11:19:16.064Z,2.55
2022-09-04T11:22:15.115Z,2.45
2022-09-04T11:25:42.812Z,2.40
2022-09-04T11:28:52.196Z,2.55
2022-09-04T11:31:47.119Z,2.55
2022-09-04T11:35:14.259Z,2.63
2022-09-04T11:38:09.251Z,2.28
2022-09-04T11:41:29.106Z,2.58
2022-09-04T11:44:48.448Z,2.63
2022-09-04T11:48:07.085Z,2.30
2022-09-04T11:50:56.565Z,2.78
2022-09-04T11:53:52.968Z,2.45
2022-09-04T11:56:58.289Z,2.97
2022-09-04T12:00:03.607Z,2.15
2022-09-04T12:03:29.702Z,2.50
2022-09-04T12:06:14.947Z,2.50
2022-09-04T12:09:21.504Z,2.67
2022-09-04T12:12:43.110Z,2.25
2022-09-04T12:15:45.299Z,2.80
2022-09-04T12:19:23.221Z,2.40
2022-09-04T12:23:02.773Z,2.60
2022-09-04T12:26:21.687Z,2.72
2022-09-04T12:29:33.810Z,2.53
2022-09-04T12:33:18.636Z,2.80
2022-09-04T12:36:36.972Z,2.78
2022-09-04T12:39:48.033Z,2.95
2022-09-04T12:42:25.585Z,2.60
2022-09-04T12:45:11.132Z,2.30
2022-09-04T12:47:57.266Z,2.70
2022-09-04T12:50:44.391Z,2.50
2022-09-04T12:53:34.040Z,2.22
2022-09-04T12:56:12.126Z,2.35
2022-09-04T12:59:02.001Z,2.40
2022-09-04T13:01:46.355Z,2.67
2022-09-04T13:04:27.685Z,2.28
2022-09-04T13:07:16.677Z,2.78
2022-09-04T13:09:57.364Z,2.60
2022-09-04T13:12:42.352Z,2.58
2022-09-04T13:15:30.797Z,2.78
2022-09-04T13:18:18.191Z,2.75
2022-09-04T13:20:58.122Z,2.90
2022-09-04T13:23:46.845Z,3.47
2022-09-04T13:26:38.342Z,3.00
2022-09-04T13:29:35.927Z,3.45
2022-09-04T13:32:31.697Z,3.50
2022-09-04T13:35:19.236Z,4.50
2022-09-04T13:38:11.580Z,4.18
2022-09-04T13:41:31.012Z,3.92
2022-09-04T13:44:34.446Z,4.40
2022-09-04T13:47:08.339Z,4.70
2022-09-04T13:49:44.343Z,6.43
2022-09-04T13:52:19.443Z,5.60
2022-09-04T13:54:55.697Z,5.97
2022-09-04T13:57:30.355Z,6.20
2022-09-04T14:00:07.526Z,6.15
2022-09-04T14:02:39.241Z,6.75
2022-09-04T14:05:13.366Z,6.28
2022-09-04T14:07:46.151Z,6.40
2022-09-04T14:10:20.055Z,6.07
2022-09-04T14:13:12.449Z,5.38
2022-09-04T14:16:04.695Z,5.32
2022-09-04T14:19:00.185Z,4.90
2022-09-04T14:22:00.342Z,5.53
2022-09-04T14:24:42.158Z,5.30
2022-09-04T14:27:23.276Z,4.82
2022-09-04T14:30:06.130Z,4.80
2022-09-04T14:32:58.400Z,4.55
2022-09-04T14:35:37.607Z,5.20
2022-09-04T14:38:42.358Z,6.18
2022-09-04T14:41:37.148Z,6.35
2022-09-04T14:44:20.929Z,6.63
2022-09-04T14:47:03.543Z,6.20
2022-09-04T14:49:41.685Z,7.22
2022-09-04T14:52:21.683Z,7.20
2022-09-04T14:54:57.773Z,6.97
2022-09-04T14:57:34.633Z,6.57
2022-09-04T15:00:14.904Z,7.07
2022-09-04T15:02:48.601Z,6.95
2022-09-04T15:05:27.741Z,6.72
2022-09-04T15:08:01.086Z,7.03
2022-09-04T15:10:47.134Z,7.22
2022-09-04T15:13:48.773Z,7.03
2022-09-04T15:16:29.533Z,6.90
2022-09-04T15:19:09.921Z,7.38
2022-09-04T15:21:47.328Z,7.38
2022-09-04T15:27:09.393Z,7.25
2022-09-04T15:29:47.950Z,7.20
2022-09-04T15:32:23.730Z,7.97
2022-09-04T15:35:12.724Z,7.55
2022-09-04T15:37:48.385Z,7.60
2022-09-04T15:40:32.912Z,8.05
2022-09-04T15:43:14.045Z,8.30
2022-09-04T15:45:48.265Z,7.47
2022-09-04T15:48:43.965Z,7.30
2022-09-04T15:51:24.602Z,7.57
2022-09-04T15:54:21.202Z,7.13
2022-09-04T15:57:03.268Z,6.75
2022-09-04T15:59:50.279Z,7.30
2022-09-04T16:02:37.394Z,6.05
2022-09-04T16:05:24.107Z,4.80
2022-09-04T16:08:05.432Z,4.30
2022-09-04T16:11:00.436Z,4.30
2022-09-04T16:13:45.337Z,3.75
2022-09-04T16:16:29.802Z,3.30
2022-09-04T16:19:21.985Z,3.75
2022-09-04T16:22:07.693Z,3.47
2022-09-04T16:24:44.816Z,4.00
2022-09-04T16:27:21.286Z,3.58
2022-09-04T16:29:59.073Z,3.20
2022-09-04T16:32:32.170Z,3.88
2022-09-04T16:35:06.102Z,3.35
2022-09-04T16:37:42.588Z,3.60
2022-09-04T16:40:28.433Z,3.63
2022-09-04T16:43:12.069Z,3.88
2022-09-04T16:45:50.092Z,3.42
2022-09-04T16:48:33.892Z,3.70
2022-09-04T16:51:39.725Z,3.38
2022-09-04T16:54:08.912Z,3.25
2022-09-04T16:56:42.944Z,3.13
2022-09-04T16:59:30.160Z,3.28
2022-09-04T17:02:03.708Z,3.28
2022-09-04T17:04:40.261Z,3.40
2022-09-04T17:07:20.412Z,3.88
2022-09-04T17:10:01.884Z,4.70
2022-09-04T17:12:52.879Z,4.63
2022-09-04T17:15:33.963Z,4.53
2022-09-04T17:18:08.479Z,5.18
2022-09-04T17:23:25.951Z,5.40
2022-09-04T17:29:11.312Z,4.85
2022-09-04T17:29:16.666Z,5.47
2022-09-04T17:29:43.117Z,5.93
2022-09-04T17:35:34.106Z,5.25
2022-09-04T17:40:34.822Z,5.00
2022-09-04T17:40:54.772Z,5.72
2022-09-04T17:41:31.225Z,5.95
2022-09-04T17:44:31.936Z,6.25
2022-09-04T17:47:18.380Z,5.43
2022-09-04T17:49:53.745Z,5.50
2022-09-04T17:52:28.723Z,6.13
2022-09-04T17:55:03.970Z,5.60
2022-09-04T17:57:53.749Z,6.38
2022-09-04T18:00:26.293Z,6.35
2022-09-04T18:03:03.901Z,6.80
2022-09-04T18:05:49.162Z,6.57
2022-09-04T18:08:32.600Z,6.70
2022-09-04T18:11:13.894Z,6.72
2022-09-04T18:13:54.702Z,6.57
2022-09-04T18:17:11.495Z,6.85
2022-09-04T18:19:47.686Z,8.30
2022-09-04T18:22:33.470Z,7.53
2022-09-04T18:25:17.060Z,8.25
2022-09-04T18:28:06.483Z,7.78
2022-09-04T18:36:39.346Z,6.90
2022-09-04T18:37:21.502Z,7.53
2022-09-04T18:37:26.560Z,6.53
2022-09-04T18:40:08.659Z,7.80
2022-09-04T18:50:26.019Z,6.97
2022-09-04T18:50:39.645Z,8.23
2022-09-04T18:50:45.239Z,6.28
2022-09-04T18:51:31.057Z,8.18
2022-09-04T18:54:09.532Z,7.40
2022-09-04T18:56:46.218Z,7.93
2022-09-04T18:59:21.014Z,7.88
2022-09-04T19:02:00.974Z,7.28
2022-09-04T19:04:48.919Z,6.95
2022-09-04T19:07:30.078Z,8.73
2022-09-04T19:10:11.851Z,9.27
2022-09-04T19:12:56.276Z,7.70
2022-09-04T19:16:05.576Z,8.25
2022-09-04T19:18:48.793Z,10.38
2022-09-04T19:21:39.822Z,9.10
2022-09-04T19:24:28.676Z,9.45
2022-09-04T19:27:29.018Z,11.15
2022-09-04T19:30:18.681Z,11.20
2022-09-04T19:33:06.050Z,8.88
2022-09-04T19:35:45.012Z,7.85
2022-09-04T19:43:51.236Z,7.22
2022-09-04T19:46:08.362Z,7.40
2022-09-04T19:46:15.177Z,8.35
2022-09-04T19:47:29.750Z,8.60
2022-09-04T19:52:28.263Z,7.90
2022-09-04T19:53:37.680Z,8.80
2022-09-04T19:56:23.299Z,9.38
2022-09-04T19:58:58.981Z,10.63
2022-09-04T20:01:39.721Z,12.98
2022-09-04T20:04:27.042Z,13.40
2022-09-04T20:07:02.785Z,14.75
2022-09-04T20:09:38.339Z,11.35
2022-09-04T20:12:20.798Z,11.77
2022-09-04T20:14:57.120Z,14.73
2022-09-04T20:17:46.915Z,12.38
2022-09-04T20:20:23.284Z,12.45
2022-09-04T20:23:00.110Z,12.15
2022-09-04T20:25:46.510Z,11.30
2022-09-04T20:28:24.693Z,13.18
2022-09-04T20:31:35.569Z,11.25
2022-09-04T20:34:17.067Z,11.30
2022-09-04T20:36:52.576Z,9.60
2022-09-04T20:39:29.022Z,8.25
2022-09-04T20:42:05.228Z,7.63
2022-09-04T20:44:51.178Z,7.35
2022-09-04T20:52:50.396Z,7.35
2022-09-04T20:52:53.415Z,7.93
2022-09-04T20:53:37.159Z,9.40
2022-09-04T20:57:07.574Z,9.13
2022-09-04T21:03:09.576Z,11.02
2022-09-04T21:03:19.610Z,14.05
2022-09-04T21:06:06.082Z,13.90
2022-09-04T21:08:51.715Z,13.73
2022-09-04T21:11:40.879Z,14.38
2022-09-04T21:14:22.453Z,14.20
2022-09-04T21:17:27.567Z,15.50
2022-09-04T21:20:59.812Z,14.77
2022-09-04T21:24:17.003Z,14.07
2022-09-04T21:27:27.357Z,14.35
2022-09-04T21:30:06.480Z,14.52
2022-09-04T21:33:27.751Z,12.98
2022-09-04T21:36:26.760Z,12.57
2022-09-04T21:39:39.349Z,11.80
2022-09-04T21:42:50.958Z,13.10
2022-09-04T21:45:48.098Z,13.27
2022-09-04T21:48:43.739Z,16.80
2022-09-04T21:59:49.287Z,14.80
2022-09-04T22:02:32.046Z,14.02
2022-09-04T22:02:40.458Z,13.98
2022-09-04T22:04:44.778Z,13.73
2022-09-04T22:09:54.173Z,12.73
2022-09-04T22:13:29.338Z,13.68
2022-09-04T22:13:53.115Z,10.55
2022-09-04T22:16:58.734Z,10.38
2022-09-04T22:20:13.004Z,10.35
2022-09-04T22:23:20.303Z,11.05
2022-09-04T22:26:23.964Z,11.45
2022-09-04T22:29:37.566Z,13.25
2022-09-04T22:33:05.683Z,11.32
2022-09-04T22:36:17.309Z,12.60
2022-09-04T22:39:44.497Z,16.95
2022-09-04T22:42:45.026Z,14.50
2022-09-04T22:45:49.225Z,14.98
2022-09-04T22:48:47.231Z,12.50
2022-09-04T22:51:35.916Z,12.88
2022-09-04T22:54:37.473Z,12.95
2022-09-04T22:57:12.172Z,14.35
2022-09-04T23:00:11.725Z,17.15
2022-09-04T23:03:26.172Z,14.05
2022-09-04T23:09:13.744Z,13.20
2022-09-04T23:13:49.833Z,9.68
2022-09-04T23:14:01.163Z,9.23
2022-09-04T23:17:11.711Z,9.25
2022-09-04T23:26:33.064Z,8.68
2022-09-04T23:26:57.302Z,8.18
2022-09-04T23:27:43.512Z,11.27
2022-09-04T23:30:26.446Z,12.02
2022-09-04T23:33:42.628Z,10.82
2022-09-04T23:37:01.297Z,10.60
2022-09-04T23:39:49.852Z,14.48
2022-09-04T23:42:47.506Z,14.15
2022-09-04T23:46:01.377Z,14.15
2022-09-04T23:49:05.490Z,12.40
2022-09-04T23:51:46.758Z,13.10
2022-09-04T23:54:46.936Z,14.65
2022-09-04T23:57:26.657Z,12.40
